Akebono — JG5644 — position and weather

sailwx.info

Track history (hours):
 
Tides and Currents Weather Stations Pressure Air Temp Water Temp Dewpoint Dewpoint Depression Visibility Wind Speed Wind Dir Waves Ship Positions

Akebono

Last reported at 2015-Aug-28 07:33 UTC. Time now 2015-Aug-28 09:34 UTC.
Position N 35°26' E 139°41'.

Length 33 m; draft 4.4 m.

Type: Tug. MMSI: 431000233.

Date/timePositionNaut miles runAvg speedWind from/ knotsBaromVisibWave heightAir tempDewpointWater temp
2015-Aug-28 07:33N 35°26' E 139°41'1 1.4
2015-Aug-28 06:33N 35°27' E 139°39'0 0.0
2015-Aug-28 05:33N 35°27' E 139°39'1 1.0
2015-Aug-28 04:33N 35°28' E 139°41'0 0.0
2015-Aug-28 03:33N 35°28' E 139°41'0 0.1
2015-Aug-28 02:33N 35°28' E 139°41'3 2.7
2015-Aug-28 01:33N 35°25' E 139°42'3 3.2
2015-Aug-28 00:34N 35°24' E 139°38'3 3.1
2015-Aug-27 23:33N 35°25' E 139°42'4 3.7
2015-Aug-27 22:33N 35°27' E 139°38'0 0.0
2015-Aug-27 00:04N 35°27' E 139°38'4 8.9
2015-Aug-26 23:34N 35°30' E 139°43'0 0.4
2015-Aug-26 22:33N 35°29' E 139°43'3 2.9
2015-Aug-26 21:33N 35°26' E 139°43'3 3.1
2015-Aug-26 20:33N 35°27' E 139°39'0 0.0
2015-Aug-26 19:33N 35°27' E 139°39'0 0.0
2015-Aug-26 18:33N 35°27' E 139°39'0 0.0
2015-Aug-26 17:33N 35°27' E 139°39'0 0.0
2015-Aug-26 16:33N 35°27' E 139°39'0 0.0
2015-Aug-26 15:33N 35°27' E 139°39'6 6.1
2015-Aug-26 14:33N 35°29' E 139°47'1 0.9
2015-Aug-26 13:33N 35°29' E 139°46'0 0.0
2015-Aug-26 12:33N 35°29' E 139°46'0 0.0
2015-Aug-26 11:33N 35°29' E 139°46'4 4.0
2015-Aug-26 10:33N 35°27' E 139°41'1 1.1
2015-Aug-26 09:33N 35°26' E 139°42'0 0.0
2015-Aug-26 08:33N 35°26' E 139°42'1 1.3
2015-Aug-26 07:34N 35°27' E 139°41'2 2.2
2015-Aug-26 06:33N 35°27' E 139°38'0 0.0
2015-Aug-26 05:33N 35°27' E 139°38'0 0.0
2015-Aug-26 04:33N 35°27' E 139°38'0 0.0
2015-Aug-26 03:33N 35°27' E 139°38'0 0.0
2015-Aug-26 02:34N 35°27' E 139°38'0 0.0
2015-Aug-26 01:34N 35°27' E 139°38'0 0.0
2015-Aug-26 00:34N 35°27' E 139°38'0 0.0
2015-Aug-25 23:34N 35°27' E 139°38'0 0.0
2015-Aug-25 22:34N 35°27' E 139°38'0 0.0
2015-Aug-24 23:33N 35°27' E 139°38'7 7.2
2015-Aug-24 22:33N 35°31' E 139°46'5 4.6
2015-Aug-24 21:33N 35°27' E 139°43'3 3.0
2015-Aug-24 20:33N 35°27' E 139°40'0 0.2
2015-Aug-24 19:33N 35°27' E 139°39'0 0.0
2015-Aug-24 18:33N 35°27' E 139°39'0 0.0
2015-Aug-24 17:33N 35°27' E 139°39'0 0.0
2015-Aug-24 16:33N 35°27' E 139°39'0 0.0
2015-Aug-24 15:33N 35°27' E 139°39'1 1.4
2015-Aug-24 14:33N 35°26' E 139°41'2 2.2
2015-Aug-24 13:33N 35°27' E 139°39'0 0.0
2015-Aug-24 12:33N 35°27' E 139°39'0 0.0
2015-Aug-24 11:33N 35°27' E 139°39'0 0.0
2015-Aug-24 10:33N 35°27' E 139°39'0 0.0
2015-Aug-24 09:33N 35°27' E 139°39'5 4.5
2015-Aug-24 08:33N 35°30' E 139°43'2 2.2
2015-Aug-24 07:33N 35°28' E 139°42'2 1.5
2015-Aug-24 06:33N 35°26' E 139°42'0 0.0
2015-Aug-24 05:33N 35°26' E 139°42'0 0.0
2015-Aug-24 04:33N 35°26' E 139°42'0 0.0
2015-Aug-24 03:33N 35°26' E 139°42'0 0.0
2015-Aug-24 02:33N 35°26' E 139°42'3 2.9
2015-Aug-24 01:33N 35°27' E 139°38'0 0.0
2015-Aug-24 00:33N 35°27' E 139°38'0 0.0
2015-Aug-23 23:34N 35°27' E 139°38'0 0.0
2015-Aug-23 22:33N 35°27' E 139°38'0 0.0
2015-Aug-22 07:10N 35°27' E 139°38'0 0.0
2015-Aug-22 06:33N 35°27' E 139°38'0 0.0
2015-Aug-22 05:33N 35°27' E 139°38'1 1.4
2015-Aug-22 04:33N 35°27' E 139°40'1 0.9
2015-Aug-22 03:33N 35°27' E 139°40'1 1.0
2015-Aug-22 02:33N 35°28' E 139°40'0 0.0
2015-Aug-22 01:33N 35°28' E 139°40'0 0.0
2015-Aug-22 00:33N 35°28' E 139°40'5 4.6
2015-Aug-21 23:33N 35°30' E 139°45'0 0.3
2015-Aug-21 22:33N 35°30' E 139°45'5 4.6
2015-Aug-21 21:34N 35°27' E 139°42'3 2.7
2015-Aug-21 20:33N 35°27' E 139°38'0 0.0
2015-Aug-21 08:31N 35°27' E 139°38'7 7.8
2015-Aug-21 07:33N 35°30' E 139°47'3 3.2
2015-Aug-21 06:33N 35°29' E 139°43'0 0.0
2015-Aug-21 05:33N 35°29' E 139°43'0 0.3
2015-Aug-21 04:33N 35°29' E 139°43'2 2.1
2015-Aug-21 03:33N 35°27' E 139°42'0 0.0
2015-Aug-21 02:33N 35°27' E 139°42'1 0.9
2015-Aug-21 01:33N 35°28' E 139°43'1 1.0
2015-Aug-21 00:33N 35°27' E 139°43'1 0.8
2015-Aug-20 23:33N 35°27' E 139°43'0 0.3
2015-Aug-20 22:33N 35°27' E 139°42'1 1.4
2015-Aug-20 21:34N 35°26' E 139°43'4 4.2
2015-Aug-20 20:33N 35°27' E 139°39'0 0.0
2015-Aug-20 09:34N 35°27' E 139°39'4 3.8
2015-Aug-20 08:34N 35°26' E 139°43'1 1.0
2015-Aug-20 07:34N 35°27' E 139°42'2 1.7
2015-Aug-20 06:34N 35°26' E 139°41'1 1.5
2015-Aug-20 05:34N 35°28' E 139°40'0 0.0
2015-Aug-20 04:33N 35°28' E 139°40'0 0.0
2015-Aug-20 03:33N 35°28' E 139°40'0 0.0
2015-Aug-20 02:33N 35°28' E 139°40'0 0.0
2015-Aug-20 01:33N 35°28' E 139°40'1 0.8
2015-Aug-20 00:34N 35°27' E 139°41'2 2.0
2015-Aug-19 23:34N 35°27' E 139°38'0 0.0
2015-Aug-19 22:33N 35°27' E 139°38'2 0.1
2015-Aug-18 22:33N 35°27' E 139°40'3 3.0
2015-Aug-18 21:33N 35°25' E 139°43'1 1.4
2015-Aug-18 20:34N 35°26' E 139°42'1 1.1
2015-Aug-18 19:34N 35°27' E 139°41'1 0.9
2015-Aug-18 18:34N 35°27' E 139°42'0 0.0
2015-Aug-18 17:34N 35°27' E 139°42'0 0.0
2015-Aug-18 16:34N 35°27' E 139°42'0 0.0
2015-Aug-18 15:34N 35°27' E 139°42'0 0.0
2015-Aug-18 14:34N 35°27' E 139°42'0 0.0
2015-Aug-18 13:33N 35°27' E 139°42'0 0.0
2015-Aug-18 12:34N 35°27' E 139°42'2 2.0
2015-Aug-18 11:33N 35°29' E 139°42'1 1.2
2015-Aug-18 10:33N 35°29' E 139°43'2 2.1
2015-Aug-18 09:33N 35°28' E 139°41'6 5.5
2015-Aug-18 08:33N 35°30' E 139°47'4 4.4
2015-Aug-18 07:33N 35°29' E 139°42'  
Track history (hours):
 
Tides and Currents Weather Stations Pressure Air Temp Water Temp Dewpoint Dewpoint Depression Visibility Wind Speed Wind Dir Waves Ship Positions

Akebono

Last reported at 2015-Aug-28 07:33 UTC. Time now 2015-Aug-28 09:34 UTC.
Position N 35°26' E 139°41'.

Length 33 m; draft 4.4 m.

Type: Tug. MMSI: 431000233.

Date/timePositionNaut miles runAvg speedWind from/ knotsBaromVisibWave heightAir tempDewpointWater temp
2015-Aug-28 07:33N 35°26' E 139°41'1 1.4
2015-Aug-28 06:33N 35°27' E 139°39'0 0.0
2015-Aug-28 05:33N 35°27' E 139°39'1 1.0
2015-Aug-28 04:33N 35°28' E 139°41'0 0.0
2015-Aug-28 03:33N 35°28' E 139°41'0 0.1
2015-Aug-28 02:33N 35°28' E 139°41'3 2.7
2015-Aug-28 01:33N 35°25' E 139°42'3 3.2
2015-Aug-28 00:34N 35°24' E 139°38'3 3.1
2015-Aug-27 23:33N 35°25' E 139°42'4 3.7
2015-Aug-27 22:33N 35°27' E 139°38'0 0.0
2015-Aug-27 00:04N 35°27' E 139°38'4 8.9
2015-Aug-26 23:34N 35°30' E 139°43'0 0.4
2015-Aug-26 22:33N 35°29' E 139°43'3 2.9
2015-Aug-26 21:33N 35°26' E 139°43'3 3.1
2015-Aug-26 20:33N 35°27' E 139°39'0 0.0
2015-Aug-26 19:33N 35°27' E 139°39'0 0.0
2015-Aug-26 18:33N 35°27' E 139°39'0 0.0
2015-Aug-26 17:33N 35°27' E 139°39'0 0.0
2015-Aug-26 16:33N 35°27' E 139°39'0 0.0
2015-Aug-26 15:33N 35°27' E 139°39'6 6.1
2015-Aug-26 14:33N 35°29' E 139°47'1 0.9
2015-Aug-26 13:33N 35°29' E 139°46'0 0.0
2015-Aug-26 12:33N 35°29' E 139°46'0 0.0
2015-Aug-26 11:33N 35°29' E 139°46'4 4.0
2015-Aug-26 10:33N 35°27' E 139°41'1 1.1
2015-Aug-26 09:33N 35°26' E 139°42'0 0.0
2015-Aug-26 08:33N 35°26' E 139°42'1 1.3
2015-Aug-26 07:34N 35°27' E 139°41'2 2.2
2015-Aug-26 06:33N 35°27' E 139°38'0 0.0
2015-Aug-26 05:33N 35°27' E 139°38'0 0.0
2015-Aug-26 04:33N 35°27' E 139°38'0 0.0
2015-Aug-26 03:33N 35°27' E 139°38'0 0.0
2015-Aug-26 02:34N 35°27' E 139°38'0 0.0
2015-Aug-26 01:34N 35°27' E 139°38'0 0.0
2015-Aug-26 00:34N 35°27' E 139°38'0 0.0
2015-Aug-25 23:34N 35°27' E 139°38'0 0.0
2015-Aug-25 22:34N 35°27' E 139°38'0 0.0
2015-Aug-24 23:33N 35°27' E 139°38'7 7.2
2015-Aug-24 22:33N 35°31' E 139°46'5 4.6
2015-Aug-24 21:33N 35°27' E 139°43'3 3.0
2015-Aug-24 20:33N 35°27' E 139°40'0 0.2
2015-Aug-24 19:33N 35°27' E 139°39'0 0.0
2015-Aug-24 18:33N 35°27' E 139°39'0 0.0
2015-Aug-24 17:33N 35°27' E 139°39'0 0.0
2015-Aug-24 16:33N 35°27' E 139°39'0 0.0
2015-Aug-24 15:33N 35°27' E 139°39'1 1.4
2015-Aug-24 14:33N 35°26' E 139°41'2 2.2
2015-Aug-24 13:33N 35°27' E 139°39'0 0.0
2015-Aug-24 12:33N 35°27' E 139°39'0 0.0
2015-Aug-24 11:33N 35°27' E 139°39'0 0.0
2015-Aug-24 10:33N 35°27' E 139°39'0 0.0
2015-Aug-24 09:33N 35°27' E 139°39'5 4.5
2015-Aug-24 08:33N 35°30' E 139°43'2 2.2
2015-Aug-24 07:33N 35°28' E 139°42'2 1.5
2015-Aug-24 06:33N 35°26' E 139°42'0 0.0
2015-Aug-24 05:33N 35°26' E 139°42'0 0.0
2015-Aug-24 04:33N 35°26' E 139°42'0 0.0
2015-Aug-24 03:33N 35°26' E 139°42'0 0.0
2015-Aug-24 02:33N 35°26' E 139°42'3 2.9
2015-Aug-24 01:33N 35°27' E 139°38'0 0.0
2015-Aug-24 00:33N 35°27' E 139°38'0 0.0
2015-Aug-23 23:34N 35°27' E 139°38'0 0.0
2015-Aug-23 22:33N 35°27' E 139°38'0 0.0
2015-Aug-22 07:10N 35°27' E 139°38'0 0.0
2015-Aug-22 06:33N 35°27' E 139°38'0 0.0
2015-Aug-22 05:33N 35°27' E 139°38'1 1.4
2015-Aug-22 04:33N 35°27' E 139°40'1 0.9
2015-Aug-22 03:33N 35°27' E 139°40'1 1.0
2015-Aug-22 02:33N 35°28' E 139°40'0 0.0
2015-Aug-22 01:33N 35°28' E 139°40'0 0.0
2015-Aug-22 00:33N 35°28' E 139°40'5 4.6
2015-Aug-21 23:33N 35°30' E 139°45'0 0.3
2015-Aug-21 22:33N 35°30' E 139°45'5 4.6
2015-Aug-21 21:34N 35°27' E 139°42'3 2.7
2015-Aug-21 20:33N 35°27' E 139°38'0 0.0
2015-Aug-21 08:31N 35°27' E 139°38'7 7.8
2015-Aug-21 07:33N 35°30' E 139°47'3 3.2
2015-Aug-21 06:33N 35°29' E 139°43'0 0.0
2015-Aug-21 05:33N 35°29' E 139°43'0 0.3
2015-Aug-21 04:33N 35°29' E 139°43'2 2.1
2015-Aug-21 03:33N 35°27' E 139°42'0 0.0
2015-Aug-21 02:33N 35°27' E 139°42'1 0.9
2015-Aug-21 01:33N 35°28' E 139°43'1 1.0
2015-Aug-21 00:33N 35°27' E 139°43'1 0.8
2015-Aug-20 23:33N 35°27' E 139°43'0 0.3
2015-Aug-20 22:33N 35°27' E 139°42'1 1.4
2015-Aug-20 21:34N 35°26' E 139°43'4 4.2
2015-Aug-20 20:33N 35°27' E 139°39'0 0.0
2015-Aug-20 09:34N 35°27' E 139°39'4 3.8
2015-Aug-20 08:34N 35°26' E 139°43'1 1.0
2015-Aug-20 07:34N 35°27' E 139°42'2 1.7
2015-Aug-20 06:34N 35°26' E 139°41'1 1.5
2015-Aug-20 05:34N 35°28' E 139°40'0 0.0
2015-Aug-20 04:33N 35°28' E 139°40'0 0.0
2015-Aug-20 03:33N 35°28' E 139°40'0 0.0
2015-Aug-20 02:33N 35°28' E 139°40'0 0.0
2015-Aug-20 01:33N 35°28' E 139°40'1 0.8
2015-Aug-20 00:34N 35°27' E 139°41'2 2.0
2015-Aug-19 23:34N 35°27' E 139°38'0 0.0
2015-Aug-19 22:33N 35°27' E 139°38'2 0.1
2015-Aug-18 22:33N 35°27' E 139°40'3 3.0
2015-Aug-18 21:33N 35°25' E 139°43'1 1.4
2015-Aug-18 20:34N 35°26' E 139°42'1 1.1
2015-Aug-18 19:34N 35°27' E 139°41'1 0.9
2015-Aug-18 18:34N 35°27' E 139°42'0 0.0
2015-Aug-18 17:34N 35°27' E 139°42'0 0.0
2015-Aug-18 16:34N 35°27' E 139°42'0 0.0
2015-Aug-18 15:34N 35°27' E 139°42'0 0.0
2015-Aug-18 14:34N 35°27' E 139°42'0 0.0
2015-Aug-18 13:33N 35°27' E 139°42'0 0.0
2015-Aug-18 12:34N 35°27' E 139°42'2 2.0
2015-Aug-18 11:33N 35°29' E 139°42'1 1.2
2015-Aug-18 10:33N 35°29' E 139°43'2 2.1
2015-Aug-18 09:33N 35°28' E 139°41'6 5.5
2015-Aug-18 08:33N 35°30' E 139°47'4 4.4
2015-Aug-18 07:33N 35°29' E 139°42'  

Dump ship's entire track history